Time;durP1;ratioP1;P1;durP2;ratioP2;P2;SDS_P1;SDS_P2;PMS_P1;PMS_P2;Temp;Humidity;BMP_temperature;BMP_pressure;BME280_temperature;BME280_humidity;BME280_pressure;Samples;Min_cycle;Max_cycle;Signal;HPM_P1;HPM_P2
2021/12/26 00:02:08;;;;;;;;;;;11.10;99.90;;;;;;5095125;28;19908;-79
2021/12/26 00:04:34;;;;;;;;;;;11.00;99.90;;;;;;5077219;28;19908;-83
2021/12/26 00:06:59;;;;;;;;;;;11.10;99.90;;;;;;5095448;28;19908;-81
2021/12/26 00:09:25;;;;;;;;;;;11.10;99.90;;;;;;5095251;28;19908;-81
2021/12/26 00:11:51;;;;;;;;;;;11.10;99.90;;;;;;5094971;28;19912;-80
2021/12/26 00:14:16;;;;;;;;;;;11.10;99.90;;;;;;5093901;28;20349;-81
2021/12/26 00:16:42;;;;;;;;;;;11.20;99.90;;;;;;5095107;28;19919;-80
2021/12/26 00:19:08;;;;;;;;;;;11.20;99.90;;;;;;5095111;28;19908;-80
2021/12/26 00:21:33;;;;;;;;;;;11.20;99.90;;;;;;5094452;28;19998;-81
2021/12/26 00:23:59;;;;;;;;;;;11.20;99.90;;;;;;5094931;28;19915;-81
2021/12/26 00:26:25;;;;;;;;;;;11.20;99.90;;;;;;5076786;28;19908;-80
2021/12/26 00:28:50;;;;;;;;;;;11.20;99.90;;;;;;5094920;28;19912;-79
2021/12/26 00:31:19;;;;;;;;;;;11.10;99.90;;;;;;5094620;28;19908;-78
2021/12/26 00:33:45;;;;;;;;;;;11.20;99.90;;;;;;5076966;28;19923;-79
2021/12/26 00:36:11;;;;;;;;;;;11.20;99.90;;;;;;5094768;28;20016;-81
2021/12/26 00:38:36;;;;;;;;;;;11.20;99.90;;;;;;5094696;28;19943;-80
2021/12/26 00:41:02;;;;;;;;;;;11.10;99.90;;;;;;5094692;28;20288;-82
2021/12/26 00:43:28;;;;;;;;;;;11.20;99.90;;;;;;5094288;28;19995;-79
2021/12/26 00:45:54;;;;;;;;;;;11.10;99.90;;;;;;5094852;28;20384;-81
2021/12/26 00:48:19;;;;;;;;;;;11.20;99.90;;;;;;5094474;28;19916;-78
2021/12/26 00:50:45;;;;;;;;;;;11.20;99.90;;;;;;5094787;28;19912;-80
2021/12/26 00:53:11;;;;;;;;;;;11.30;99.90;;;;;;5093990;28;20384;-79
2021/12/26 00:55:37;;;;;;;;;;;11.20;99.90;;;;;;5084914;28;19912;-78
2021/12/26 00:58:03;;;;;;;;;;;11.20;99.90;;;;;;5094469;28;19912;-81
2021/12/26 01:00:30;;;;;;;;;;;11.20;99.90;;;;;;5094310;28;19934;-80
2021/12/26 01:02:57;;;;;;;;;;;11.20;99.90;;;;;;5079034;28;19916;-79
2021/12/26 01:05:23;;;;;;;;;;;11.20;99.90;;;;;;5074062;28;20292;-81
2021/12/26 01:08:00;;;;;;;;;;;11.20;99.90;;;;;;5073786;28;19909;-79
2021/12/26 01:10:29;;;;;;;;;;;11.20;99.90;;;;;;5073569;28;20008;-82
2021/12/26 01:12:55;;;;;;;;;;;11.20;99.90;;;;;;5073381;28;19932;-80
2021/12/26 01:15:23;;;;;;;;;;;11.20;99.90;;;;;;5073472;28;20388;-79
2021/12/26 01:17:55;;;;;;;;;;;11.10;99.90;;;;;;5056251;28;19916;-78
2021/12/26 01:20:37;;;;;;;;;;;11.10;99.90;;;;;;5049882;28;20353;-81
2021/12/26 01:23:03;;;;;;;;;;;11.10;99.90;;;;;;5062361;28;19920;-80
2021/12/26 01:25:29;;;;;;;;;;;11.10;99.90;;;;;;5093277;28;19908;-81
2021/12/26 01:27:54;;;;;;;;;;;11.20;99.90;;;;;;5093784;28;20005;-80
2021/12/26 01:30:20;;;;;;;;;;;11.10;99.90;;;;;;5093640;28;19914;-80
2021/12/26 01:32:46;;;;;;;;;;;11.20;99.90;;;;;;5092499;28;19908;-81
2021/12/26 01:35:11;;;;;;;;;;;11.20;99.90;;;;;;5093561;28;19941;-80
2021/12/26 01:37:37;;;;;;;;;;;11.30;99.90;;;;;;5093670;28;19909;-78
2021/12/26 01:40:03;;;;;;;;;;;11.20;99.90;;;;;;5093585;28;20257;-82
2021/12/26 01:42:29;;;;;;;;;;;11.30;99.90;;;;;;5093370;28;19908;-80
2021/12/26 01:44:55;;;;;;;;;;;11.10;99.90;;;;;;5092309;28;19908;-82
2021/12/26 01:47:21;;;;;;;;;;;11.20;99.90;;;;;;5093574;28;19912;-81
2021/12/26 01:49:47;;;;;;;;;;;11.30;99.90;;;;;;5093681;28;19908;-79
2021/12/26 01:52:12;;;;;;;;;;;11.30;99.90;;;;;;5093117;28;19915;-80
2021/12/26 01:54:46;;;;;;;;;;;11.30;99.90;;;;;;5093376;28;19908;-81
2021/12/26 01:57:13;;;;;;;;;;;11.30;99.90;;;;;;5093504;28;20017;-81
2021/12/26 01:59:39;;;;;;;;;;;11.40;99.90;;;;;;5075353;28;19908;-80
2021/12/26 02:02:05;;;;;;;;;;;11.40;99.90;;;;;;5093323;28;19908;-82
2021/12/26 02:04:31;;;;;;;;;;;11.40;99.90;;;;;;5093065;28;19912;-81
2021/12/26 02:06:58;;;;;;;;;;;11.50;99.90;;;;;;5093454;28;19909;-78
2021/12/26 02:09:24;;;;;;;;;;;11.50;99.90;;;;;;5093302;28;19987;-81
2021/12/26 02:11:50;;;;;;;;;;;11.50;99.90;;;;;;5093376;28;20006;-80
2021/12/26 02:14:16;;;;;;;;;;;11.50;99.90;;;;;;5092714;28;19965;-82
2021/12/26 02:16:41;;;;;;;;;;;11.50;99.90;;;;;;5092885;28;19919;-81
2021/12/26 02:19:07;;;;;;;;;;;11.40;99.90;;;;;;5075324;28;19951;-83
2021/12/26 02:24:12;;;;;;;;;;;11.40;99.90;;;;;;5073606;28;19916;-80
2021/12/26 02:29:23;;;;;;;;;;;11.40;99.90;;;;;;5092938;28;19915;-78
2021/12/26 02:31:49;;;;;;;;;;;11.40;99.90;;;;;;5093159;28;19908;-81
2021/12/26 02:34:14;;;;;;;;;;;11.40;99.90;;;;;;5092566;28;19969;-80
2021/12/26 02:36:40;;;;;;;;;;;11.30;99.90;;;;;;5093042;28;19944;-78
2021/12/26 02:39:06;;;;;;;;;;;11.30;99.90;;;;;;5097155;28;20368;-82
2021/12/26 02:41:31;;;;;;;;;;;11.30;99.90;;;;;;5078675;28;19955;-80
2021/12/26 02:43:58;;;;;;;;;;;11.30;99.90;;;;;;5096512;28;19920;-83
2021/12/26 02:46:25;;;;;;;;;;;11.30;99.90;;;;;;5096880;28;20041;-78
2021/12/26 02:48:50;;;;;;;;;;;11.30;99.90;;;;;;5078673;28;19919;-80
2021/12/26 02:51:16;;;;;;;;;;;11.20;99.90;;;;;;5096776;28;19909;-82
2021/12/26 02:53:42;;;;;;;;;;;11.20;99.90;;;;;;5096589;28;19931;-81
2021/12/26 02:56:07;;;;;;;;;;;11.20;99.90;;;;;;5078291;28;20425;-82
2021/12/26 02:58:33;;;;;;;;;;;11.10;99.90;;;;;;5096711;28;19909;-80
2021/12/26 03:01:04;;;;;;;;;;;11.10;99.90;;;;;;5096732;28;19908;-81
2021/12/26 03:03:30;;;;;;;;;;;11.20;99.90;;;;;;5096193;28;19915;-82
2021/12/26 03:05:59;;;;;;;;;;;11.10;99.90;;;;;;5096504;28;19908;-79
2021/12/26 03:08:25;;;;;;;;;;;11.20;99.90;;;;;;5096711;28;20417;-80
2021/12/26 03:10:52;;;;;;;;;;;11.20;99.90;;;;;;5096293;28;19912;-81
2021/12/26 03:13:18;;;;;;;;;;;11.20;99.90;;;;;;5077900;28;19936;-80
2021/12/26 03:15:43;;;;;;;;;;;11.20;99.90;;;;;;5095835;28;19975;-78
2021/12/26 03:18:09;;;;;;;;;;;11.20;99.90;;;;;;5096390;28;19954;-81
2021/12/26 03:20:38;;;;;;;;;;;11.10;99.90;;;;;;5096225;28;19908;-80
2021/12/26 03:23:05;;;;;;;;;;;11.10;99.90;;;;;;5095943;28;19908;-79
2021/12/26 03:25:34;;;;;;;;;;;11.10;99.90;;;;;;5076810;28;19928;-79
2021/12/26 03:28:00;;;;;;;;;;;11.20;99.90;;;;;;5095921;28;20284;-83
2021/12/26 03:30:28;;;;;;;;;;;11.20;99.90;;;;;;5096219;28;19914;-82
2021/12/26 03:32:55;;;;;;;;;;;11.20;99.90;;;;;;5095734;28;20000;-79
2021/12/26 03:35:22;;;;;;;;;;;11.20;99.90;;;;;;5096066;28;19919;-83
2021/12/26 03:37:48;;;;;;;;;;;11.20;99.90;;;;;;5095945;28;19908;-80
2021/12/26 03:40:13;;;;;;;;;;;11.20;99.90;;;;;;5095711;28;19930;-79
2021/12/26 03:42:39;;;;;;;;;;;11.10;99.90;;;;;;5095856;28;19908;-78
2021/12/26 03:45:06;;;;;;;;;;;11.10;99.90;;;;;;5095818;28;19912;-80
2021/12/26 03:47:32;;;;;;;;;;;11.10;99.90;;;;;;5077611;28;19966;-79
2021/12/26 03:49:58;;;;;;;;;;;11.20;99.90;;;;;;5077409;28;20353;-79
2021/12/26 03:52:25;;;;;;;;;;;11.00;99.90;;;;;;5095451;28;19955;-80
2021/12/26 03:54:51;;;;;;;;;;;11.00;99.90;;;;;;5095279;28;19908;-81
2021/12/26 03:57:17;;;;;;;;;;;10.90;99.90;;;;;;5095489;28;19908;-80
2021/12/26 03:59:42;;;;;;;;;;;11.00;99.90;;;;;;5095560;28;19931;-79
2021/12/26 04:02:08;;;;;;;;;;;11.00;99.90;;;;;;5095513;28;19961;-79
2021/12/26 04:04:34;;;;;;;;;;;10.90;99.90;;;;;;5094900;28;19915;-79
2021/12/26 04:06:59;;;;;;;;;;;10.80;99.90;;;;;;5095268;28;19909;-80
2021/12/26 04:09:25;;;;;;;;;;;10.80;99.90;;;;;;5095350;28;19908;-81
2021/12/26 04:11:50;;;;;;;;;;;10.90;99.90;;;;;;5095314;28;19919;-80
2021/12/26 04:14:16;;;;;;;;;;;10.90;99.90;;;;;;5076580;28;20292;-81
2021/12/26 04:16:42;;;;;;;;;;;10.90;99.90;;;;;;5076676;28;19920;-79
2021/12/26 04:19:08;;;;;;;;;;;10.90;99.90;;;;;;5095138;28;19998;-79
2021/12/26 04:21:33;;;;;;;;;;;10.80;99.90;;;;;;5095162;28;19933;-80
2021/12/26 04:24:02;;;;;;;;;;;10.70;99.90;;;;;;5075061;28;19995;-79
2021/12/26 04:26:28;;;;;;;;;;;10.70;99.90;;;;;;5094844;28;19958;-81
2021/12/26 04:28:53;;;;;;;;;;;10.70;99.90;;;;;;5094703;28;20377;-80
2021/12/26 04:31:19;;;;;;;;;;;10.70;99.90;;;;;;5094947;28;20007;-80
2021/12/26 04:33:46;;;;;;;;;;;10.70;99.90;;;;;;5094592;28;19912;-79
2021/12/26 04:36:13;;;;;;;;;;;10.70;99.90;;;;;;5094773;28;19963;-81
2021/12/26 04:38:38;;;;;;;;;;;10.60;99.90;;;;;;5094824;28;20000;-79
2021/12/26 04:41:05;;;;;;;;;;;10.70;99.90;;;;;;5094621;28;19970;-81
2021/12/26 04:43:34;;;;;;;;;;;10.70;99.90;;;;;;5076494;28;19912;-78
2021/12/26 04:46:02;;;;;;;;;;;10.60;99.90;;;;;;5094545;28;20395;-81
2021/12/26 04:48:28;;;;;;;;;;;10.60;99.90;;;;;;5094549;28;19909;-78
2021/12/26 04:50:53;;;;;;;;;;;10.70;99.90;;;;;;5094491;28;19960;-80
2021/12/26 04:53:19;;;;;;;;;;;10.80;99.90;;;;;;5094115;28;19908;-81
2021/12/26 04:55:44;;;;;;;;;;;10.80;99.90;;;;;;5076116;28;19920;-79
2021/12/26 04:58:10;;;;;;;;;;;10.80;99.90;;;;;;5094359;28;20058;-82
2021/12/26 05:00:36;;;;;;;;;;;10.70;99.90;;;;;;5093911;28;20424;-80
2021/12/26 05:03:07;;;;;;;;;;;10.50;99.90;;;;;;5076109;28;19919;-80
2021/12/26 05:05:33;;;;;;;;;;;10.40;99.90;;;;;;5094413;28;19908;-79
2021/12/26 05:07:58;;;;;;;;;;;10.30;99.90;;;;;;5094247;28;19958;-78
2021/12/26 05:10:27;;;;;;;;;;;10.10;99.90;;;;;;5094000;28;20375;-81
2021/12/26 05:12:53;;;;;;;;;;;10.10;99.90;;;;;;5093962;28;19916;-81
2021/12/26 05:15:21;;;;;;;;;;;10.10;99.90;;;;;;5093673;28;19926;-81
2021/12/26 05:17:47;;;;;;;;;;;10.20;99.90;;;;;;5075975;28;19908;-83
2021/12/26 05:20:13;;;;;;;;;;;10.30;99.90;;;;;;5094036;28;20364;-78
2021/12/26 05:22:39;;;;;;;;;;;10.30;99.90;;;;;;5075854;28;19908;-79
2021/12/26 05:25:06;;;;;;;;;;;10.30;99.90;;;;;;5073897;28;19924;-79
2021/12/26 05:27:32;;;;;;;;;;;10.30;99.90;;;;;;5093909;28;19908;-79
2021/12/26 05:29:58;;;;;;;;;;;10.40;99.90;;;;;;5093927;28;19912;-81
2021/12/26 05:32:24;;;;;;;;;;;10.30;99.90;;;;;;5093836;28;19908;-79
2021/12/26 05:34:49;;;;;;;;;;;10.40;99.90;;;;;;5093569;28;19914;-78
2021/12/26 05:37:15;;;;;;;;;;;10.40;99.90;;;;;;5093650;28;20399;-79
2021/12/26 05:39:42;;;;;;;;;;;10.40;99.90;;;;;;5093530;28;19912;-81
2021/12/26 05:42:10;;;;;;;;;;;10.40;99.90;;;;;;5075535;28;20315;-79
2021/12/26 05:44:36;;;;;;;;;;;10.40;99.90;;;;;;5075232;28;19908;-81
2021/12/26 05:47:01;;;;;;;;;;;10.10;99.90;;;;;;5093626;28;19999;-80
2021/12/26 05:49:27;;;;;;;;;;;10.00;99.90;;;;;;5093572;28;19931;-80
2021/12/26 05:51:53;;;;;;;;;;;10.20;99.90;;;;;;5093479;28;20269;-78
2021/12/26 05:54:19;;;;;;;;;;;10.20;99.90;;;;;;5093091;28;19915;-81
2021/12/26 05:56:44;;;;;;;;;;;10.20;99.90;;;;;;5075323;28;19935;-80
2021/12/26 05:59:10;;;;;;;;;;;10.20;99.90;;;;;;5093496;28;19965;-81
2021/12/26 06:01:35;;;;;;;;;;;10.20;99.90;;;;;;5093416;28;19957;-79
2021/12/26 06:04:01;;;;;;;;;;;10.10;99.90;;;;;;5093129;28;19919;-80
2021/12/26 06:06:26;;;;;;;;;;;10.10;99.90;;;;;;5075298;28;20416;-80
2021/12/26 06:08:52;;;;;;;;;;;10.10;99.90;;;;;;5093974;28;19908;-83
2021/12/26 06:11:18;;;;;;;;;;;10.10;99.90;;;;;;5093068;28;19908;-79
2021/12/26 06:13:43;;;;;;;;;;;10.20;99.90;;;;;;5096481;28;19931;-80
2021/12/26 06:16:09;;;;;;;;;;;10.30;99.90;;;;;;5097388;28;20003;-80
2021/12/26 06:18:34;;;;;;;;;;;10.30;99.90;;;;;;5096146;28;19908;-80
2021/12/26 06:21:00;;;;;;;;;;;10.30;99.90;;;;;;5097510;28;20029;-80
2021/12/26 06:23:26;;;;;;;;;;;10.30;99.90;;;;;;5078902;28;19915;-80
2021/12/26 06:25:51;;;;;;;;;;;10.20;99.90;;;;;;5078036;28;19997;-80
2021/12/26 06:28:17;;;;;;;;;;;10.10;99.90;;;;;;5097074;28;19908;-80
2021/12/26 06:30:42;;;;;;;;;;;10.10;99.90;;;;;;5097269;28;19908;-79
2021/12/26 06:33:08;;;;;;;;;;;10.20;99.90;;;;;;5096305;28;19914;-80
2021/12/26 06:35:34;;;;;;;;;;;10.30;99.90;;;;;;5076798;28;19912;-79
2021/12/26 06:37:59;;;;;;;;;;;10.00;99.90;;;;;;5076896;28;19947;-80
2021/12/26 06:40:25;;;;;;;;;;;10.00;99.90;;;;;;5076635;28;19909;-79
2021/12/26 06:42:51;;;;;;;;;;;10.00;99.90;;;;;;5076768;28;19912;-79
2021/12/26 06:45:18;;;;;;;;;;;10.10;99.90;;;;;;5076190;28;19919;-78
2021/12/26 06:47:49;;;;;;;;;;;10.20;99.90;;;;;;5076612;28;19915;-81
2021/12/26 06:50:15;;;;;;;;;;;10.20;99.90;;;;;;5076751;28;20433;-83
2021/12/26 06:52:41;;;;;;;;;;;10.20;99.90;;;;;;5058300;28;20415;-80
2021/12/26 06:55:07;;;;;;;;;;;10.30;99.90;;;;;;5075974;28;19908;-79
2021/12/26 06:57:33;;;;;;;;;;;10.30;99.90;;;;;;5076402;28;19958;-79
2021/12/26 06:59:58;;;;;;;;;;;10.30;99.90;;;;;;5058229;28;20356;-80
2021/12/26 07:02:24;;;;;;;;;;;10.40;99.90;;;;;;5076420;28;19908;-81
2021/12/26 07:04:50;;;;;;;;;;;10.30;99.90;;;;;;5076123;28;19999;-81
2021/12/26 07:07:15;;;;;;;;;;;10.30;99.90;;;;;;5058339;28;19908;-79
2021/12/26 07:09:43;;;;;;;;;;;10.30;99.90;;;;;;5076117;28;19935;-83
2021/12/26 07:12:09;;;;;;;;;;;10.40;99.90;;;;;;5076307;28;19948;-81
2021/12/26 07:14:34;;;;;;;;;;;10.30;99.90;;;;;;5075668;28;19927;-79
2021/12/26 07:17:00;;;;;;;;;;;10.30;99.90;;;;;;5075792;28;20296;-80
2021/12/26 07:19:26;;;;;;;;;;;10.30;99.90;;;;;;5076100;28;19908;-79
2021/12/26 07:21:51;;;;;;;;;;;10.10;99.90;;;;;;5076029;28;19958;-80
2021/12/26 07:24:17;;;;;;;;;;;10.10;99.90;;;;;;5075104;28;19916;-79
2021/12/26 07:26:42;;;;;;;;;;;10.10;99.90;;;;;;5056316;28;19916;-80
2021/12/26 07:29:08;;;;;;;;;;;10.00;99.90;;;;;;5075970;28;19915;-79
2021/12/26 07:31:34;;;;;;;;;;;10.00;99.90;;;;;;5075961;28;20309;-79
2021/12/26 07:33:59;;;;;;;;;;;10.10;99.90;;;;;;5075491;28;19936;-80
2021/12/26 07:36:25;;;;;;;;;;;10.20;99.90;;;;;;5075837;28;19919;-79
2021/12/26 07:38:53;;;;;;;;;;;10.20;99.90;;;;;;5075545;28;19940;-80
2021/12/26 07:41:19;;;;;;;;;;;10.30;99.90;;;;;;5075727;28;19962;-81
2021/12/26 07:43:45;;;;;;;;;;;10.30;99.90;;;;;;5057341;28;19908;-81
2021/12/26 07:46:11;;;;;;;;;;;10.30;99.90;;;;;;5075554;28;19909;-78
2021/12/26 07:48:37;;;;;;;;;;;10.20;99.90;;;;;;5075573;28;19916;-81
2021/12/26 07:51:04;;;;;;;;;;;10.30;99.90;;;;;;5075393;28;20335;-80
2021/12/26 07:53:30;;;;;;;;;;;10.30;99.90;;;;;;5075246;28;19915;-78
2021/12/26 07:55:56;;;;;;;;;;;10.40;99.90;;;;;;5075033;28;19917;-81
2021/12/26 07:58:21;;;;;;;;;;;10.50;99.90;;;;;;5075437;28;19916;-80
2021/12/26 08:00:47;;;;;;;;;;;10.50;99.90;;;;;;5075354;28;19916;-80
2021/12/26 08:03:13;;;;;;;;;;;10.60;99.90;;;;;;5075135;28;19966;-79
2021/12/26 08:05:38;;;;;;;;;;;10.50;99.90;;;;;;5056778;28;19908;-79
2021/12/26 08:08:04;;;;;;;;;;;10.40;99.90;;;;;;5075192;28;20003;-82
2021/12/26 08:10:29;;;;;;;;;;;10.40;99.90;;;;;;5075075;28;19915;-79
2021/12/26 08:12:55;;;;;;;;;;;10.50;99.90;;;;;;5075068;28;20448;-79
2021/12/26 08:15:21;;;;;;;;;;;10.50;99.90;;;;;;5074430;28;19924;-81
2021/12/26 08:17:46;;;;;;;;;;;10.50;99.90;;;;;;5075074;28;19908;-78
2021/12/26 08:20:12;;;;;;;;;;;10.50;99.90;;;;;;5074910;28;20387;-80
2021/12/26 08:22:38;;;;;;;;;;;10.40;99.90;;;;;;5074943;28;19908;-81
2021/12/26 08:25:04;;;;;;;;;;;10.40;99.90;;;;;;5074415;28;20011;-80
2021/12/26 08:27:32;;;;;;;;;;;10.50;99.90;;;;;;5055340;28;19917;-81
2021/12/26 08:29:58;;;;;;;;;;;10.60;99.90;;;;;;5056632;28;20353;-80
2021/12/26 08:32:23;;;;;;;;;;;10.60;99.90;;;;;;5074722;28;20284;-81
2021/12/26 08:34:49;;;;;;;;;;;10.60;99.90;;;;;;5073340;28;19908;-80
2021/12/26 08:37:15;;;;;;;;;;;10.60;99.90;;;;;;5074504;28;19920;-80
2021/12/26 08:39:41;;;;;;;;;;;10.60;99.90;;;;;;5074354;28;20428;-79
2021/12/26 08:42:08;;;;;;;;;;;10.60;99.90;;;;;;5056434;28;19912;-80
2021/12/26 08:44:34;;;;;;;;;;;10.50;99.90;;;;;;5056221;28;19909;-80
2021/12/26 08:47:00;;;;;;;;;;;10.60;99.90;;;;;;5056364;28;19931;-78
2021/12/26 08:49:25;;;;;;;;;;;10.70;99.90;;;;;;5056437;28;19938;-80
2021/12/26 08:51:51;;;;;;;;;;;10.80;99.90;;;;;;5074206;28;19916;-79
2021/12/26 08:54:17;;;;;;;;;;;10.80;99.90;;;;;;5073891;28;19940;-80
2021/12/26 08:56:43;;;;;;;;;;;10.60;99.90;;;;;;5074283;28;19912;-79
2021/12/26 08:59:08;;;;;;;;;;;10.60;99.90;;;;;;5056249;28;19909;-80
2021/12/26 09:01:35;;;;;;;;;;;10.60;99.90;;;;;;5056178;28;19915;-82
2021/12/26 09:04:00;;;;;;;;;;;10.70;99.90;;;;;;5073681;28;19959;-81
2021/12/26 09:06:26;;;;;;;;;;;10.70;99.90;;;;;;5074056;28;20284;-82
2021/12/26 09:08:51;;;;;;;;;;;10.70;99.90;;;;;;5074047;28;19908;-80
2021/12/26 09:11:17;;;;;;;;;;;10.80;99.90;;;;;;5073676;28;19954;-81
2021/12/26 09:13:44;;;;;;;;;;;10.80;99.90;;;;;;5074272;28;19909;-81
2021/12/26 09:16:10;;;;;;;;;;;10.80;99.90;;;;;;5093913;28;19912;-79
2021/12/26 09:18:35;;;;;;;;;;;10.80;99.90;;;;;;5094034;28;19915;-79
2021/12/26 09:21:01;;;;;;;;;;;10.90;99.90;;;;;;5094041;28;19957;-78
2021/12/26 09:23:26;;;;;;;;;;;11.00;99.90;;;;;;5093936;28;19908;-80
2021/12/26 09:25:52;;;;;;;;;;;10.90;99.90;;;;;;5093408;28;19908;-80
2021/12/26 09:28:18;;;;;;;;;;;11.00;99.90;;;;;;5074371;28;20373;-79
2021/12/26 09:30:43;;;;;;;;;;;11.00;99.90;;;;;;5093965;28;20021;-80
2021/12/26 09:33:09;;;;;;;;;;;11.10;99.90;;;;;;5075671;28;19969;-79
2021/12/26 09:35:35;;;;;;;;;;;11.10;99.90;;;;;;5075133;28;19916;-83
2021/12/26 09:38:01;;;;;;;;;;;11.20;99.90;;;;;;5093907;28;19914;-79
2021/12/26 09:40:27;;;;;;;;;;;11.20;99.90;;;;;;5075430;28;19915;-80
2021/12/26 09:42:53;;;;;;;;;;;11.20;99.90;;;;;;5093807;28;19908;-81
2021/12/26 09:45:18;;;;;;;;;;;11.30;99.90;;;;;;5093157;28;20355;-79
2021/12/26 09:47:45;;;;;;;;;;;11.20;99.90;;;;;;5093854;28;20399;-79
2021/12/26 09:50:11;;;;;;;;;;;11.20;99.90;;;;;;5075425;28;19944;-78
2021/12/26 09:52:40;;;;;;;;;;;11.20;99.90;;;;;;5093243;28;19909;-79
2021/12/26 09:55:06;;;;;;;;;;;11.20;99.90;;;;;;5093120;28;19915;-80
2021/12/26 09:57:31;;;;;;;;;;;11.20;99.90;;;;;;5093406;28;19912;-79
2021/12/26 09:59:57;;;;;;;;;;;11.10;99.90;;;;;;5093627;28;20005;-81
2021/12/26 10:02:22;;;;;;;;;;;11.30;99.90;;;;;;5093369;28;19915;-78
2021/12/26 10:04:49;;;;;;;;;;;11.40;99.90;;;;;;5092999;28;19908;-79
2021/12/26 10:07:18;;;;;;;;;;;11.30;99.90;;;;;;5093473;28;20434;-80
2021/12/26 10:09:46;;;;;;;;;;;11.50;99.90;;;;;;5093332;28;19908;-81
2021/12/26 10:12:13;;;;;;;;;;;11.40;99.90;;;;;;5093307;28;19924;-82
2021/12/26 10:14:40;;;;;;;;;;;11.30;99.90;;;;;;5092800;28;20416;-79
2021/12/26 10:17:07;;;;;;;;;;;11.40;99.90;;;;;;5093292;28;20003;-80
2021/12/26 10:19:34;;;;;;;;;;;11.50;99.90;;;;;;5093304;28;19912;-80
2021/12/26 10:22:03;;;;;;;;;;;11.50;99.90;;;;;;5093334;28;19908;-80
2021/12/26 10:24:30;;;;;;;;;;;11.50;99.90;;;;;;5088360;28;19931;-80
2021/12/26 10:26:57;;;;;;;;;;;11.50;99.90;;;;;;5073211;28;19912;-82
2021/12/26 10:29:25;;;;;;;;;;;11.60;99.90;;;;;;5036252;28;19952;-81
2021/12/26 10:32:06;;;;;;;;;;;11.70;99.90;;;;;;5073035;28;19916;-79
2021/12/26 10:34:33;;;;;;;;;;;11.70;99.90;;;;;;5072581;28;19965;-82
2021/12/26 10:36:59;;;;;;;;;;;11.80;99.90;;;;;;5073090;28;19916;-82
2021/12/26 10:39:27;;;;;;;;;;;11.90;99.90;;;;;;5072697;28;20514;-80
2021/12/26 10:41:54;;;;;;;;;;;11.90;99.90;;;;;;5072890;28;19915;-80
2021/12/26 10:44:34;;;;;;;;;;;12.10;99.90;;;;;;5054575;28;20039;-81
2021/12/26 10:47:05;;;;;;;;;;;12.10;99.90;;;;;;5073007;28;19916;-80
2021/12/26 10:49:38;;;;;;;;;;;12.30;99.90;;;;;;5072797;28;20079;-80
2021/12/26 10:52:09;;;;;;;;;;;12.60;99.90;;;;;;5072843;28;19908;-80
2021/12/26 10:54:35;;;;;;;;;;;12.90;99.90;;;;;;5072474;28;20299;-79
2021/12/26 10:57:02;;;;;;;;;;;12.90;99.90;;;;;;5054719;28;19916;-80
2021/12/26 10:59:28;;;;;;;;;;;13.40;99.90;;;;;;5075487;28;19915;-81
2021/12/26 11:01:56;;;;;;;;;;;13.70;99.90;;;;;;5076420;28;19908;-79
2021/12/26 11:04:24;;;;;;;;;;;14.00;99.90;;;;;;5075919;28;19912;-79
2021/12/26 11:06:57;;;;;;;;;;;14.40;99.90;;;;;;5076229;28;19909;-82
2021/12/26 11:09:24;;;;;;;;;;;14.20;99.90;;;;;;5076200;28;19909;-80
2021/12/26 11:12:00;;;;;;;;;;;13.80;99.90;;;;;;5076234;28;19912;-81
2021/12/26 11:14:26;;;;;;;;;;;13.50;99.90;;;;;;5075819;28;20003;-78
2021/12/26 11:16:51;;;;;;;;;;;13.30;99.90;;;;;;5075752;28;20011;-81
2021/12/26 11:19:37;;;;;;;;;;;13.80;99.90;;;;;;5075839;28;19991;-80
2021/12/26 11:22:03;;;;;;;;;;;14.00;99.90;;;;;;5075845;28;19908;-80
2021/12/26 11:24:29;;;;;;;;;;;14.30;99.90;;;;;;5075863;28;19916;-80
2021/12/26 11:26:54;;;;;;;;;;;14.20;99.90;;;;;;5058032;28;20357;-80
2021/12/26 11:29:20;;;;;;;;;;;13.90;99.90;;;;;;5056904;28;19916;-79
2021/12/26 11:31:45;;;;;;;;;;;13.60;99.90;;;;;;5075001;28;19908;-80
2021/12/26 11:34:11;;;;;;;;;;;13.50;99.90;;;;;;5075800;28;19920;-78
2021/12/26 11:36:37;;;;;;;;;;;14.20;99.90;;;;;;5075553;28;19919;-80
2021/12/26 11:39:06;;;;;;;;;;;16.20;99.90;;;;;;5075670;28;19915;-80
2021/12/26 11:41:31;;;;;;;;;;;16.40;99.90;;;;;;5057561;28;19913;-82
2021/12/26 11:44:03;;;;;;;;;;;16.60;99.90;;;;;;5075555;28;19915;-79
2021/12/26 11:46:35;;;;;;;;;;;15.90;99.90;;;;;;5075051;28;19912;-81
2021/12/26 11:49:19;;;;;;;;;;;15.50;99.90;;;;;;5075469;28;20357;-80
2021/12/26 11:51:48;;;;;;;;;;;15.90;99.90;;;;;;5075319;28;19992;-79
2021/12/26 11:54:49;;;;;;;;;;;20.10;99.90;;;;;;5057450;28;19908;-81
2021/12/26 11:57:33;;;;;;;;;;;20.00;99.90;;;;;;5013408;28;20117;-82
2021/12/26 12:00:19;;;;;;;;;;;18.30;99.90;;;;;;5052052;28;20007;-80
2021/12/26 12:02:49;;;;;;;;;;;17.30;99.90;;;;;;5075265;28;19913;-82
2021/12/26 12:05:24;;;;;;;;;;;18.60;99.90;;;;;;5056798;28;19915;-80
2021/12/26 12:07:57;;;;;;;;;;;20.20;99.90;;;;;;5075159;28;19908;-81
2021/12/26 12:10:41;;;;;;;;;;;22.80;99.90;;;;;;5075063;28;19953;-80
2021/12/26 12:13:08;;;;;;;;;;;25.60;96.80;;;;;;5075059;28;20009;-80
2021/12/26 12:15:42;;;;;;;;;;;26.60;90.80;;;;;;5074360;28;20016;-79
2021/12/26 12:18:09;;;;;;;;;;;25.20;85.50;;;;;;5074975;28;19993;-80
2021/12/26 12:20:35;;;;;;;;;;;25.50;81.60;;;;;;5074892;28;20310;-79
2021/12/26 12:23:03;;;;;;;;;;;25.00;83.70;;;;;;5074949;28;20050;-79
2021/12/26 12:25:41;;;;;;;;;;;23.70;83.30;;;;;;5074332;28;20334;-79
2021/12/26 12:28:11;;;;;;;;;;;21.10;87.70;;;;;;5055293;28;19951;-80
2021/12/26 12:30:38;;;;;;;;;;;19.60;91.10;;;;;;5074819;28;19915;-79
2021/12/26 12:33:25;;;;;;;;;;;19.30;90.80;;;;;;5056817;28;19916;-80
2021/12/26 12:35:51;;;;;;;;;;;19.10;93.50;;;;;;5074331;28;19915;-79
2021/12/26 12:38:42;;;;;;;;;;;18.10;94.70;;;;;;5074595;28;19909;-79
2021/12/26 12:41:28;;;;;;;;;;;18.10;93.30;;;;;;5053430;28;20373;-79
2021/12/26 12:43:54;;;;;;;;;;;17.40;94.20;;;;;;5056353;28;20331;-81
2021/12/26 12:46:21;;;;;;;;;;;16.50;97.60;;;;;;5073878;28;20058;-79
2021/12/26 12:48:47;;;;;;;;;;;16.10;99.90;;;;;;5074424;28;19908;-79
2021/12/26 12:51:15;;;;;;;;;;;15.60;99.90;;;;;;5056270;28;19915;-80
2021/12/26 12:53:44;;;;;;;;;;;15.50;99.90;;;;;;5074384;28;20312;-78
2021/12/26 12:56:35;;;;;;;;;;;15.20;99.90;;;;;;5073770;28;20377;-80
2021/12/26 12:59:16;;;;;;;;;;;15.00;99.90;;;;;;5074113;28;20113;-82
2021/12/26 13:01:44;;;;;;;;;;;14.60;99.90;;;;;;5074039;28;19913;-79
2021/12/26 13:04:11;;;;;;;;;;;14.50;99.90;;;;;;5073973;28;19909;-79
2021/12/26 13:06:46;;;;;;;;;;;14.50;99.90;;;;;;5073424;28;19920;-79
2021/12/26 13:09:12;;;;;;;;;;;14.50;99.90;;;;;;5073990;28;19913;-80
2021/12/26 13:11:38;;;;;;;;;;;14.20;99.90;;;;;;5073917;28;19909;-80
2021/12/26 13:14:03;;;;;;;;;;;14.10;99.90;;;;;;5073662;28;19917;-80
2021/12/26 13:16:30;;;;;;;;;;;14.00;99.90;;;;;;5073393;28;20376;-81
2021/12/26 13:19:03;;;;;;;;;;;14.00;99.90;;;;;;5073834;28;19908;-78
2021/12/26 13:21:30;;;;;;;;;;;14.00;99.90;;;;;;5072551;28;20127;-79
2021/12/26 13:23:56;;;;;;;;;;;13.90;99.90;;;;;;5073367;28;20280;-78
2021/12/26 13:26:22;;;;;;;;;;;14.10;99.90;;;;;;5055178;28;20464;-79
2021/12/26 13:28:48;;;;;;;;;;;14.00;99.90;;;;;;5054016;28;19916;-79
2021/12/26 13:31:24;;;;;;;;;;;13.90;99.90;;;;;;5073529;28;19938;-80
2021/12/26 13:33:54;;;;;;;;;;;13.80;99.90;;;;;;5073712;28;19908;-79
2021/12/26 13:36:23;;;;;;;;;;;14.00;99.90;;;;;;5073109;28;20007;-79
2021/12/26 13:38:50;;;;;;;;;;;14.00;99.90;;;;;;5073719;28;19908;-80
2021/12/26 13:41:17;;;;;;;;;;;14.00;99.90;;;;;;5073292;28;19908;-81
2021/12/26 13:43:44;;;;;;;;;;;14.10;99.90;;;;;;5073448;28;20277;-78
2021/12/26 13:46:10;;;;;;;;;;;14.40;99.90;;;;;;5055212;28;20326;-79
2021/12/26 13:48:38;;;;;;;;;;;14.20;99.90;;;;;;5073483;28;19957;-80
2021/12/26 13:51:15;;;;;;;;;;;14.20;99.90;;;;;;5073717;28;19934;-79
2021/12/26 13:53:41;;;;;;;;;;;14.20;99.90;;;;;;5073397;28;19944;-81
2021/12/26 13:56:06;;;;;;;;;;;14.10;99.90;;;;;;5072909;28;19909;-81
2021/12/26 13:58:36;;;;;;;;;;;13.90;99.90;;;;;;5073263;28;19915;-79
2021/12/26 14:01:02;;;;;;;;;;;14.00;99.90;;;;;;5055341;28;19919;-80
2021/12/26 14:03:28;;;;;;;;;;;14.20;99.90;;;;;;5073197;28;19913;-80
2021/12/26 14:05:53;;;;;;;;;;;14.20;99.90;;;;;;5072687;28;20011;-80
2021/12/26 14:08:21;;;;;;;;;;;14.50;99.90;;;;;;5073219;28;20378;-79
2021/12/26 14:10:57;;;;;;;;;;;15.00;99.90;;;;;;5072981;28;20369;-81
2021/12/26 14:13:22;;;;;;;;;;;15.90;99.90;;;;;;5055162;28;19908;-78
2021/12/26 14:15:55;;;;;;;;;;;15.60;99.90;;;;;;5072466;28;20448;-78
2021/12/26 14:18:24;;;;;;;;;;;15.20;99.90;;;;;;5073145;28;19912;-79
2021/12/26 14:20:50;;;;;;;;;;;14.60;99.90;;;;;;5073147;28;19916;-79
2021/12/26 14:23:25;;;;;;;;;;;14.50;99.90;;;;;;5073100;28;19955;-82